sensor_id;sensor_type;location;lat;lon;timestamp;P1;durP1;ratioP1;P2;durP2;ratioP2
69569;SDS011;56781;42.292;23.146;2022-11-24T00:01:26;13.10;;;5.68;;
69569;SDS011;56781;42.292;23.146;2022-11-24T00:03:59;10.25;;;4.30;;
69569;SDS011;56781;42.292;23.146;2022-11-24T00:06:29;6.93;;;2.50;;
69569;SDS011;56781;42.292;23.146;2022-11-24T00:08:58;7.60;;;3.05;;
69569;SDS011;56781;42.292;23.146;2022-11-24T00:11:35;5.60;;;2.70;;
69569;SDS011;56781;42.292;23.146;2022-11-24T00:14:03;7.20;;;2.72;;
69569;SDS011;56781;42.292;23.146;2022-11-24T00:16:34;9.93;;;2.97;;
69569;SDS011;56781;42.292;23.146;2022-11-24T00:19:05;9.57;;;3.20;;
69569;SDS011;56781;42.292;23.146;2022-11-24T00:21:42;9.57;;;4.05;;
69569;SDS011;56781;42.292;23.146;2022-11-24T00:24:12;10.50;;;4.30;;
69569;SDS011;56781;42.292;23.146;2022-11-24T00:26:42;16.88;;;7.20;;
69569;SDS011;56781;42.292;23.146;2022-11-24T00:29:11;16.08;;;6.72;;
69569;SDS011;56781;42.292;23.146;2022-11-24T00:31:42;12.27;;;5.80;;
69569;SDS011;56781;42.292;23.146;2022-11-24T00:34:10;20.70;;;10.60;;
69569;SDS011;56781;42.292;23.146;2022-11-24T00:36:40;9.57;;;4.47;;
69569;SDS011;56781;42.292;23.146;2022-11-24T00:39:12;10.18;;;3.08;;
69569;SDS011;56781;42.292;23.146;2022-11-24T00:41:42;9.18;;;4.32;;
69569;SDS011;56781;42.292;23.146;2022-11-24T00:44:13;9.07;;;4.17;;
69569;SDS011;56781;42.292;23.146;2022-11-24T00:46:43;9.02;;;4.13;;
69569;SDS011;56781;42.292;23.146;2022-11-24T00:49:10;8.68;;;2.90;;
69569;SDS011;56781;42.292;23.146;2022-11-24T00:51:42;9.65;;;3.75;;
69569;SDS011;56781;42.292;23.146;2022-11-24T00:54:13;17.08;;;6.50;;
69569;SDS011;56781;42.292;23.146;2022-11-24T00:56:40;10.50;;;4.23;;
69569;SDS011;56781;42.292;23.146;2022-11-24T00:59:09;12.70;;;5.05;;
69569;SDS011;56781;42.292;23.146;2022-11-24T01:01:37;6.85;;;2.70;;
69569;SDS011;56781;42.292;23.146;2022-11-24T01:04:09;10.52;;;3.75;;
69569;SDS011;56781;42.292;23.146;2022-11-24T01:06:38;7.03;;;2.50;;
69569;SDS011;56781;42.292;23.146;2022-11-24T01:09:05;8.00;;;1.80;;
69569;SDS011;56781;42.292;23.146;2022-11-24T01:11:33;6.18;;;2.08;;
69569;SDS011;56781;42.292;23.146;2022-11-24T01:14:21;7.38;;;2.47;;
69569;SDS011;56781;42.292;23.146;2022-11-24T01:16:57;7.22;;;3.45;;
69569;SDS011;56781;42.292;23.146;2022-11-24T01:19:27;11.85;;;3.97;;
69569;SDS011;56781;42.292;23.146;2022-11-24T01:21:56;5.87;;;2.70;;
69569;SDS011;56781;42.292;23.146;2022-11-24T01:24:23;6.75;;;2.13;;
69569;SDS011;56781;42.292;23.146;2022-11-24T01:26:53;8.38;;;2.67;;
69569;SDS011;56781;42.292;23.146;2022-11-24T01:29:22;8.35;;;2.97;;
69569;SDS011;56781;42.292;23.146;2022-11-24T01:31:51;8.18;;;3.40;;
69569;SDS011;56781;42.292;23.146;2022-11-24T01:34:27;15.93;;;5.63;;
69569;SDS011;56781;42.292;23.146;2022-11-24T01:36:56;13.10;;;5.00;;
69569;SDS011;56781;42.292;23.146;2022-11-24T01:39:24;12.27;;;5.20;;
69569;SDS011;56781;42.292;23.146;2022-11-24T01:41:59;12.55;;;5.50;;
69569;SDS011;56781;42.292;23.146;2022-11-24T01:44:29;10.02;;;4.85;;
69569;SDS011;56781;42.292;23.146;2022-11-24T01:50:03;9.45;;;4.53;;
69569;SDS011;56781;42.292;23.146;2022-11-24T01:52:46;10.27;;;4.90;;
69569;SDS011;56781;42.292;23.146;2022-11-24T01:55:20;13.05;;;6.03;;
69569;SDS011;56781;42.292;23.146;2022-11-24T01:58:08;10.43;;;4.35;;
69569;SDS011;56781;42.292;23.146;2022-11-24T02:00:45;14.93;;;5.90;;
69569;SDS011;56781;42.292;23.146;2022-11-24T02:03:14;20.63;;;6.45;;
69569;SDS011;56781;42.292;23.146;2022-11-24T02:08:31;12.05;;;5.00;;
69569;SDS011;56781;42.292;23.146;2022-11-24T02:11:20;12.48;;;4.80;;
69569;SDS011;56781;42.292;23.146;2022-11-24T02:13:55;13.40;;;4.97;;
69569;SDS011;56781;42.292;23.146;2022-11-24T02:16:23;14.48;;;5.47;;
69569;SDS011;56781;42.292;23.146;2022-11-24T02:18:51;13.77;;;4.82;;
69569;SDS011;56781;42.292;23.146;2022-11-24T02:21:19;14.60;;;4.93;;
69569;SDS011;56781;42.292;23.146;2022-11-24T02:23:53;11.15;;;4.40;;
69569;SDS011;56781;42.292;23.146;2022-11-24T02:26:39;11.53;;;4.03;;
69569;SDS011;56781;42.292;23.146;2022-11-24T02:29:09;12.70;;;3.85;;
69569;SDS011;56781;42.292;23.146;2022-11-24T02:31:40;10.00;;;4.05;;
69569;SDS011;56781;42.292;23.146;2022-11-24T02:34:13;10.18;;;3.80;;
69569;SDS011;56781;42.292;23.146;2022-11-24T02:36:40;10.23;;;3.67;;
69569;SDS011;56781;42.292;23.146;2022-11-24T02:39:12;12.40;;;3.70;;
69569;SDS011;56781;42.292;23.146;2022-11-24T02:41:42;15.25;;;3.30;;
69569;SDS011;56781;42.292;23.146;2022-11-24T02:44:19;10.50;;;3.92;;
69569;SDS011;56781;42.292;23.146;2022-11-24T02:46:49;15.52;;;4.05;;
69569;SDS011;56781;42.292;23.146;2022-11-24T02:49:34;7.90;;;3.60;;
69569;SDS011;56781;42.292;23.146;2022-11-24T02:52:15;10.10;;;3.97;;
69569;SDS011;56781;42.292;23.146;2022-11-24T02:54:43;13.30;;;4.43;;
69569;SDS011;56781;42.292;23.146;2022-11-24T02:57:10;7.30;;;3.20;;
69569;SDS011;56781;42.292;23.146;2022-11-24T02:59:37;8.23;;;3.20;;
69569;SDS011;56781;42.292;23.146;2022-11-24T03:02:12;13.20;;;4.50;;
69569;SDS011;56781;42.292;23.146;2022-11-24T03:04:39;13.70;;;4.83;;
69569;SDS011;56781;42.292;23.146;2022-11-24T03:07:06;9.50;;;3.75;;
69569;SDS011;56781;42.292;23.146;2022-11-24T03:09:34;10.05;;;3.83;;
69569;SDS011;56781;42.292;23.146;2022-11-24T03:12:03;8.02;;;3.00;;
69569;SDS011;56781;42.292;23.146;2022-11-24T03:14:30;8.65;;;3.03;;
69569;SDS011;56781;42.292;23.146;2022-11-24T03:16:57;7.57;;;3.23;;
69569;SDS011;56781;42.292;23.146;2022-11-24T03:19:26;8.45;;;3.80;;
69569;SDS011;56781;42.292;23.146;2022-11-24T03:21:53;11.93;;;5.32;;
69569;SDS011;56781;42.292;23.146;2022-11-24T03:24:23;9.88;;;4.43;;
69569;SDS011;56781;42.292;23.146;2022-11-24T03:26:53;10.82;;;4.05;;
69569;SDS011;56781;42.292;23.146;2022-11-24T03:29:22;13.17;;;7.43;;
69569;SDS011;56781;42.292;23.146;2022-11-24T03:31:51;5.65;;;2.60;;
69569;SDS011;56781;42.292;23.146;2022-11-24T03:34:28;5.88;;;2.47;;
69569;SDS011;56781;42.292;23.146;2022-11-24T03:36:57;8.35;;;2.53;;
69569;SDS011;56781;42.292;23.146;2022-11-24T03:39:29;6.57;;;2.25;;
69569;SDS011;56781;42.292;23.146;2022-11-24T03:41:56;7.87;;;2.43;;
69569;SDS011;56781;42.292;23.146;2022-11-24T03:44:23;9.25;;;3.80;;
69569;SDS011;56781;42.292;23.146;2022-11-24T03:46:55;9.80;;;3.17;;
69569;SDS011;56781;42.292;23.146;2022-11-24T03:49:25;11.82;;;4.18;;
69569;SDS011;56781;42.292;23.146;2022-11-24T03:51:52;27.40;;;10.10;;
69569;SDS011;56781;42.292;23.146;2022-11-24T03:54:33;94.10;;;32.27;;
69569;SDS011;56781;42.292;23.146;2022-11-24T03:57:03;28.77;;;9.82;;
69569;SDS011;56781;42.292;23.146;2022-11-24T03:59:33;17.80;;;7.57;;
69569;SDS011;56781;42.292;23.146;2022-11-24T04:02:02;31.75;;;11.82;;
69569;SDS011;56781;42.292;23.146;2022-11-24T04:04:32;27.92;;;11.50;;
69569;SDS011;56781;42.292;23.146;2022-11-24T04:07:02;10.23;;;4.10;;
69569;SDS011;56781;42.292;23.146;2022-11-24T04:09:33;7.25;;;2.83;;
69569;SDS011;56781;42.292;23.146;2022-11-24T04:12:05;8.25;;;2.90;;
69569;SDS011;56781;42.292;23.146;2022-11-24T04:14:53;6.57;;;2.60;;
69569;SDS011;56781;42.292;23.146;2022-11-24T04:17:24;8.35;;;3.20;;
69569;SDS011;56781;42.292;23.146;2022-11-24T04:19:52;9.73;;;3.67;;
69569;SDS011;56781;42.292;23.146;2022-11-24T04:22:19;8.73;;;4.10;;
69569;SDS011;56781;42.292;23.146;2022-11-24T04:24:48;10.88;;;4.75;;
69569;SDS011;56781;42.292;23.146;2022-11-24T04:27:17;12.18;;;5.25;;
69569;SDS011;56781;42.292;23.146;2022-11-24T04:29:46;10.18;;;3.65;;
69569;SDS011;56781;42.292;23.146;2022-11-24T04:32:25;9.10;;;4.03;;
69569;SDS011;56781;42.292;23.146;2022-11-24T04:34:53;10.65;;;4.13;;
69569;SDS011;56781;42.292;23.146;2022-11-24T04:37:24;8.85;;;4.22;;
69569;SDS011;56781;42.292;23.146;2022-11-24T04:39:51;26.88;;;10.98;;
69569;SDS011;56781;42.292;23.146;2022-11-24T04:42:30;18.30;;;7.97;;
69569;SDS011;56781;42.292;23.146;2022-11-24T04:44:57;20.07;;;8.27;;
69569;SDS011;56781;42.292;23.146;2022-11-24T04:47:25;17.05;;;7.93;;
69569;SDS011;56781;42.292;23.146;2022-11-24T04:49:52;22.08;;;9.00;;
69569;SDS011;56781;42.292;23.146;2022-11-24T04:52:22;21.02;;;9.25;;
69569;SDS011;56781;42.292;23.146;2022-11-24T04:54:57;25.70;;;10.82;;
69569;SDS011;56781;42.292;23.146;2022-11-24T04:57:24;30.67;;;11.57;;
69569;SDS011;56781;42.292;23.146;2022-11-24T04:59:52;33.67;;;11.48;;
69569;SDS011;56781;42.292;23.146;2022-11-24T05:02:20;36.00;;;12.05;;
69569;SDS011;56781;42.292;23.146;2022-11-24T05:04:59;29.77;;;10.00;;
69569;SDS011;56781;42.292;23.146;2022-11-24T05:07:27;27.73;;;10.45;;
69569;SDS011;56781;42.292;23.146;2022-11-24T05:09:54;22.13;;;9.87;;
69569;SDS011;56781;42.292;23.146;2022-11-24T05:12:41;23.02;;;8.48;;
69569;SDS011;56781;42.292;23.146;2022-11-24T05:15:16;33.35;;;9.13;;
69569;SDS011;56781;42.292;23.146;2022-11-24T05:17:44;22.67;;;8.32;;
69569;SDS011;56781;42.292;23.146;2022-11-24T05:20:15;14.52;;;6.68;;
69569;SDS011;56781;42.292;23.146;2022-11-24T05:22:47;16.87;;;7.63;;
69569;SDS011;56781;42.292;23.146;2022-11-24T05:25:16;23.85;;;7.00;;
69569;SDS011;56781;42.292;23.146;2022-11-24T05:27:45;14.20;;;6.53;;
69569;SDS011;56781;42.292;23.146;2022-11-24T05:30:15;21.23;;;6.60;;
69569;SDS011;56781;42.292;23.146;2022-11-24T05:32:42;17.40;;;7.53;;
69569;SDS011;56781;42.292;23.146;2022-11-24T05:35:09;28.27;;;11.00;;
69569;SDS011;56781;42.292;23.146;2022-11-24T05:37:47;19.20;;;7.63;;
69569;SDS011;56781;42.292;23.146;2022-11-24T05:40:14;40.88;;;16.90;;
69569;SDS011;56781;42.292;23.146;2022-11-24T05:43:01;18.17;;;7.65;;
69569;SDS011;56781;42.292;23.146;2022-11-24T05:45:28;25.27;;;12.23;;
69569;SDS011;56781;42.292;23.146;2022-11-24T05:48:01;16.73;;;8.00;;
69569;SDS011;56781;42.292;23.146;2022-11-24T05:50:30;20.45;;;7.97;;
69569;SDS011;56781;42.292;23.146;2022-11-24T05:53:17;17.45;;;7.80;;
69569;SDS011;56781;42.292;23.146;2022-11-24T05:55:44;12.20;;;4.93;;
69569;SDS011;56781;42.292;23.146;2022-11-24T05:58:11;18.88;;;5.95;;
69569;SDS011;56781;42.292;23.146;2022-11-24T06:00:38;11.90;;;4.80;;
69569;SDS011;56781;42.292;23.146;2022-11-24T06:03:07;14.30;;;5.43;;
69569;SDS011;56781;42.292;23.146;2022-11-24T06:05:38;10.80;;;4.97;;
69569;SDS011;56781;42.292;23.146;2022-11-24T06:08:09;14.73;;;6.70;;
69569;SDS011;56781;42.292;23.146;2022-11-24T06:10:36;16.02;;;7.53;;
69569;SDS011;56781;42.292;23.146;2022-11-24T06:13:04;20.03;;;9.67;;
69569;SDS011;56781;42.292;23.146;2022-11-24T06:15:35;22.77;;;8.63;;
69569;SDS011;56781;42.292;23.146;2022-11-24T06:18:03;14.40;;;5.90;;
69569;SDS011;56781;42.292;23.146;2022-11-24T06:20:30;11.20;;;4.90;;
69569;SDS011;56781;42.292;23.146;2022-11-24T06:22:58;9.98;;;4.88;;
69569;SDS011;56781;42.292;23.146;2022-11-24T06:25:26;13.77;;;5.37;;
69569;SDS011;56781;42.292;23.146;2022-11-24T06:27:55;14.50;;;5.45;;
69569;SDS011;56781;42.292;23.146;2022-11-24T06:30:22;16.33;;;5.40;;
69569;SDS011;56781;42.292;23.146;2022-11-24T06:32:53;23.23;;;8.32;;
69569;SDS011;56781;42.292;23.146;2022-11-24T06:35:20;15.25;;;5.38;;
69569;SDS011;56781;42.292;23.146;2022-11-24T06:37:48;15.17;;;5.00;;
69569;SDS011;56781;42.292;23.146;2022-11-24T06:40:17;14.63;;;4.95;;
69569;SDS011;56781;42.292;23.146;2022-11-24T06:42:48;16.75;;;5.68;;
69569;SDS011;56781;42.292;23.146;2022-11-24T06:45:16;17.58;;;6.13;;
69569;SDS011;56781;42.292;23.146;2022-11-24T06:47:43;17.33;;;4.97;;
69569;SDS011;56781;42.292;23.146;2022-11-24T06:50:10;14.63;;;4.27;;
69569;SDS011;56781;42.292;23.146;2022-11-24T06:52:38;12.05;;;3.92;;
69569;SDS011;56781;42.292;23.146;2022-11-24T06:55:05;10.40;;;4.15;;
69569;SDS011;56781;42.292;23.146;2022-11-24T06:57:32;17.25;;;6.63;;
69569;SDS011;56781;42.292;23.146;2022-11-24T07:00:01;12.95;;;4.53;;
69569;SDS011;56781;42.292;23.146;2022-11-24T07:02:30;10.20;;;3.73;;
69569;SDS011;56781;42.292;23.146;2022-11-24T07:04:57;13.73;;;3.88;;
69569;SDS011;56781;42.292;23.146;2022-11-24T07:07:24;9.85;;;4.70;;
69569;SDS011;56781;42.292;23.146;2022-11-24T07:09:51;10.73;;;4.85;;
69569;SDS011;56781;42.292;23.146;2022-11-24T07:12:18;10.25;;;4.35;;
69569;SDS011;56781;42.292;23.146;2022-11-24T07:14:45;8.40;;;5.20;;
69569;SDS011;56781;42.292;23.146;2022-11-24T07:17:12;11.85;;;3.35;;
69569;SDS011;56781;42.292;23.146;2022-11-24T07:19:39;12.50;;;5.93;;
69569;SDS011;56781;42.292;23.146;2022-11-24T07:22:07;12.90;;;6.85;;
69569;SDS011;56781;42.292;23.146;2022-11-24T07:24:34;9.40;;;4.50;;
69569;SDS011;56781;42.292;23.146;2022-11-24T07:27:02;8.13;;;3.60;;
69569;SDS011;56781;42.292;23.146;2022-11-24T07:29:29;8.20;;;3.38;;
69569;SDS011;56781;42.292;23.146;2022-11-24T07:31:56;9.23;;;4.20;;
69569;SDS011;56781;42.292;23.146;2022-11-24T07:34:30;11.50;;;5.03;;
69569;SDS011;56781;42.292;23.146;2022-11-24T07:36:58;12.13;;;5.72;;
69569;SDS011;56781;42.292;23.146;2022-11-24T07:39:25;15.93;;;6.53;;
69569;SDS011;56781;42.292;23.146;2022-11-24T07:41:52;17.15;;;7.30;;
69569;SDS011;56781;42.292;23.146;2022-11-24T07:44:19;17.55;;;7.80;;
69569;SDS011;56781;42.292;23.146;2022-11-24T07:46:46;15.90;;;6.75;;
69569;SDS011;56781;42.292;23.146;2022-11-24T07:49:15;15.02;;;6.72;;
69569;SDS011;56781;42.292;23.146;2022-11-24T07:51:43;14.10;;;7.07;;
69569;SDS011;56781;42.292;23.146;2022-11-24T07:54:11;14.38;;;6.82;;
69569;SDS011;56781;42.292;23.146;2022-11-24T07:56:38;29.77;;;7.97;;
69569;SDS011;56781;42.292;23.146;2022-11-24T07:59:06;68.35;;;10.95;;
69569;SDS011;56781;42.292;23.146;2022-11-24T08:01:33;43.63;;;8.65;;
69569;SDS011;56781;42.292;23.146;2022-11-24T08:04:01;28.53;;;7.60;;
69569;SDS011;56781;42.292;23.146;2022-11-24T08:06:28;31.98;;;8.25;;
69569;SDS011;56781;42.292;23.146;2022-11-24T08:09:07;42.72;;;8.77;;
69569;SDS011;56781;42.292;23.146;2022-11-24T08:11:34;42.83;;;10.20;;
69569;SDS011;56781;42.292;23.146;2022-11-24T08:14:01;37.15;;;8.65;;
69569;SDS011;56781;42.292;23.146;2022-11-24T08:16:29;27.57;;;7.70;;
69569;SDS011;56781;42.292;23.146;2022-11-24T08:18:59;32.75;;;9.57;;
69569;SDS011;56781;42.292;23.146;2022-11-24T08:21:26;32.22;;;10.15;;
69569;SDS011;56781;42.292;23.146;2022-11-24T08:23:54;31.15;;;10.00;;
69569;SDS011;56781;42.292;23.146;2022-11-24T08:26:24;26.30;;;7.88;;
69569;SDS011;56781;42.292;23.146;2022-11-24T08:28:53;24.60;;;8.27;;
69569;SDS011;56781;42.292;23.146;2022-11-24T08:31:25;75.13;;;31.45;;
69569;SDS011;56781;42.292;23.146;2022-11-24T08:33:59;55.08;;;22.85;;
69569;SDS011;56781;42.292;23.146;2022-11-24T08:36:29;33.25;;;18.08;;
69569;SDS011;56781;42.292;23.146;2022-11-24T08:38:57;22.23;;;9.95;;
69569;SDS011;56781;42.292;23.146;2022-11-24T08:41:25;19.87;;;9.43;;
69569;SDS011;56781;42.292;23.146;2022-11-24T08:43:53;20.75;;;8.52;;
69569;SDS011;56781;42.292;23.146;2022-11-24T08:46:21;16.98;;;6.53;;
69569;SDS011;56781;42.292;23.146;2022-11-24T08:48:50;19.13;;;7.35;;
69569;SDS011;56781;42.292;23.146;2022-11-24T08:51:22;18.70;;;6.22;;
69569;SDS011;56781;42.292;23.146;2022-11-24T08:53:55;17.27;;;5.30;;
69569;SDS011;56781;42.292;23.146;2022-11-24T08:56:28;28.50;;;7.47;;
69569;SDS011;56781;42.292;23.146;2022-11-24T08:58:57;31.00;;;6.13;;
69569;SDS011;56781;42.292;23.146;2022-11-24T09:01:24;19.73;;;5.90;;
69569;SDS011;56781;42.292;23.146;2022-11-24T09:03:53;28.60;;;9.05;;
69569;SDS011;56781;42.292;23.146;2022-11-24T09:06:21;25.97;;;8.70;;
69569;SDS011;56781;42.292;23.146;2022-11-24T09:08:52;12.85;;;4.75;;
69569;SDS011;56781;42.292;23.146;2022-11-24T09:11:20;15.68;;;7.07;;
69569;SDS011;56781;42.292;23.146;2022-11-24T09:13:47;14.73;;;4.70;;
69569;SDS011;56781;42.292;23.146;2022-11-24T09:16:15;16.25;;;5.68;;
69569;SDS011;56781;42.292;23.146;2022-11-24T09:18:45;14.30;;;5.23;;
69569;SDS011;56781;42.292;23.146;2022-11-24T09:21:14;21.17;;;4.32;;
69569;SDS011;56781;42.292;23.146;2022-11-24T09:23:43;15.90;;;4.47;;
69569;SDS011;56781;42.292;23.146;2022-11-24T09:26:12;18.02;;;4.90;;
69569;SDS011;56781;42.292;23.146;2022-11-24T09:28:41;20.58;;;4.80;;
69569;SDS011;56781;42.292;23.146;2022-11-24T09:31:10;15.30;;;5.23;;
69569;SDS011;56781;42.292;23.146;2022-11-24T09:33:39;12.02;;;4.70;;
69569;SDS011;56781;42.292;23.146;2022-11-24T09:36:06;20.83;;;4.78;;
69569;SDS011;56781;42.292;23.146;2022-11-24T09:38:34;16.30;;;4.50;;
69569;SDS011;56781;42.292;23.146;2022-11-24T09:41:13;14.30;;;5.10;;
69569;SDS011;56781;42.292;23.146;2022-11-24T09:46:26;14.75;;;4.43;;
69569;SDS011;56781;42.292;23.146;2022-11-24T09:49:07;10.05;;;3.63;;
69569;SDS011;56781;42.292;23.146;2022-11-24T09:51:41;8.13;;;2.35;;
69569;SDS011;56781;42.292;23.146;2022-11-24T09:54:17;4.32;;;1.80;;
69569;SDS011;56781;42.292;23.146;2022-11-24T09:56:49;4.43;;;1.57;;
69569;SDS011;56781;42.292;23.146;2022-11-24T09:59:21;5.47;;;1.90;;
69569;SDS011;56781;42.292;23.146;2022-11-24T10:01:50;6.32;;;1.70;;
69569;SDS011;56781;42.292;23.146;2022-11-24T10:04:21;4.15;;;1.65;;
69569;SDS011;56781;42.292;23.146;2022-11-24T10:09:40;4.20;;;1.60;;
69569;SDS011;56781;42.292;23.146;2022-11-24T10:12:21;8.52;;;2.65;;
69569;SDS011;56781;42.292;23.146;2022-11-24T10:18:47;5.45;;;2.60;;
69569;SDS011;56781;42.292;23.146;2022-11-24T10:26:07;6.43;;;3.05;;
69569;SDS011;56781;42.292;23.146;2022-11-24T10:31:58;8.93;;;3.75;;
69569;SDS011;56781;42.292;23.146;2022-11-24T10:34:33;6.30;;;3.03;;
69569;SDS011;56781;42.292;23.146;2022-11-24T10:42:32;5.82;;;2.40;;
69569;SDS011;56781;42.292;23.146;2022-11-24T10:45:08;9.30;;;3.15;;
69569;SDS011;56781;42.292;23.146;2022-11-24T10:47:38;7.38;;;3.63;;
69569;SDS011;56781;42.292;23.146;2022-11-24T10:50:13;6.87;;;2.67;;
69569;SDS011;56781;42.292;23.146;2022-11-24T10:58:57;3.08;;;1.58;;
69569;SDS011;56781;42.292;23.146;2022-11-24T11:03:46;4.87;;;1.80;;
69569;SDS011;56781;42.292;23.146;2022-11-24T11:06:27;4.50;;;2.03;;
69569;SDS011;56781;42.292;23.146;2022-11-24T11:11:32;6.40;;;1.67;;
69569;SDS011;56781;42.292;23.146;2022-11-24T11:14:10;3.83;;;1.90;;
69569;SDS011;56781;42.292;23.146;2022-11-24T11:16:41;5.47;;;1.60;;
69569;SDS011;56781;42.292;23.146;2022-11-24T11:19:31;3.53;;;1.70;;
69569;SDS011;56781;42.292;23.146;2022-11-24T11:22:26;4.70;;;1.90;;
69569;SDS011;56781;42.292;23.146;2022-11-24T11:25:06;4.75;;;1.80;;
69569;SDS011;56781;42.292;23.146;2022-11-24T11:27:40;5.72;;;2.10;;
69569;SDS011;56781;42.292;23.146;2022-11-24T11:33:19;4.60;;;1.40;;
69569;SDS011;56781;42.292;23.146;2022-11-24T11:36:09;2.50;;;1.05;;
69569;SDS011;56781;42.292;23.146;2022-11-24T11:38:37;4.78;;;1.85;;
69569;SDS011;56781;42.292;23.146;2022-11-24T11:41:07;4.45;;;1.60;;
69569;SDS011;56781;42.292;23.146;2022-11-24T11:43:42;2.40;;;1.10;;
69569;SDS011;56781;42.292;23.146;2022-11-24T11:46:12;3.70;;;1.52;;
69569;SDS011;56781;42.292;23.146;2022-11-24T11:48:43;3.08;;;1.48;;
69569;SDS011;56781;42.292;23.146;2022-11-24T11:51:28;4.30;;;1.48;;
69569;SDS011;56781;42.292;23.146;2022-11-24T11:54:24;4.07;;;1.30;;
69569;SDS011;56781;42.292;23.146;2022-11-24T11:57:28;3.17;;;1.10;;
69569;SDS011;56781;42.292;23.146;2022-11-24T12:02:52;3.42;;;1.35;;
69569;SDS011;56781;42.292;23.146;2022-11-24T12:05:46;3.60;;;1.63;;
69569;SDS011;56781;42.292;23.146;2022-11-24T12:11:34;3.57;;;1.47;;
69569;SDS011;56781;42.292;23.146;2022-11-24T12:14:38;3.60;;;1.35;;
69569;SDS011;56781;42.292;23.146;2022-11-24T12:17:20;5.88;;;1.88;;
69569;SDS011;56781;42.292;23.146;2022-11-24T12:20:09;5.70;;;2.88;;
69569;SDS011;56781;42.292;23.146;2022-11-24T12:31:05;4.72;;;1.90;;
69569;SDS011;56781;42.292;23.146;2022-11-24T12:33:46;4.93;;;1.80;;
69569;SDS011;56781;42.292;23.146;2022-11-24T12:36:48;3.95;;;1.92;;
69569;SDS011;56781;42.292;23.146;2022-11-24T12:39:31;4.23;;;1.57;;
69569;SDS011;56781;42.292;23.146;2022-11-24T12:42:09;6.47;;;1.90;;
69569;SDS011;56781;42.292;23.146;2022-11-24T12:44:44;5.00;;;2.50;;
69569;SDS011;56781;42.292;23.146;2022-11-24T12:47:22;5.28;;;2.85;;
69569;SDS011;56781;42.292;23.146;2022-11-24T12:50:05;5.60;;;2.80;;
69569;SDS011;56781;42.292;23.146;2022-11-24T12:52:45;10.00;;;4.77;;
69569;SDS011;56781;42.292;23.146;2022-11-24T12:55:23;8.93;;;3.92;;
69569;SDS011;56781;42.292;23.146;2022-11-24T12:58:02;10.93;;;4.60;;
69569;SDS011;56781;42.292;23.146;2022-11-24T13:00:50;42.60;;;10.43;;
69569;SDS011;56781;42.292;23.146;2022-11-24T13:03:44;34.33;;;9.60;;
69569;SDS011;56781;42.292;23.146;2022-11-24T13:08:53;56.55;;;10.55;;
69569;SDS011;56781;42.292;23.146;2022-11-24T13:17:00;43.80;;;6.93;;
69569;SDS011;56781;42.292;23.146;2022-11-24T13:19:50;23.53;;;6.07;;
69569;SDS011;56781;42.292;23.146;2022-11-24T13:22:22;9.27;;;3.53;;
69569;SDS011;56781;42.292;23.146;2022-11-24T13:25:10;41.38;;;12.43;;
69569;SDS011;56781;42.292;23.146;2022-11-24T13:27:43;26.05;;;5.30;;
69569;SDS011;56781;42.292;23.146;2022-11-24T13:36:29;83.47;;;13.70;;
69569;SDS011;56781;42.292;23.146;2022-11-24T13:49:41;5.72;;;1.98;;
69569;SDS011;56781;42.292;23.146;2022-11-24T14:00:28;15.67;;;5.07;;
69569;SDS011;56781;42.292;23.146;2022-11-24T14:05:55;13.20;;;5.25;;
69569;SDS011;56781;42.292;23.146;2022-11-24T14:08:24;10.68;;;3.70;;
69569;SDS011;56781;42.292;23.146;2022-11-24T14:10:55;9.02;;;3.47;;
69569;SDS011;56781;42.292;23.146;2022-11-24T14:18:38;5.72;;;2.30;;
69569;SDS011;56781;42.292;23.146;2022-11-24T14:24:06;7.93;;;3.20;;
69569;SDS011;56781;42.292;23.146;2022-11-24T14:26:38;9.07;;;3.60;;
69569;SDS011;56781;42.292;23.146;2022-11-24T14:31:42;10.32;;;4.95;;
69569;SDS011;56781;42.292;23.146;2022-11-24T14:34:25;8.63;;;3.95;;
69569;SDS011;56781;42.292;23.146;2022-11-24T14:36:56;10.50;;;3.35;;
69569;SDS011;56781;42.292;23.146;2022-11-24T14:39:26;6.27;;;2.70;;
69569;SDS011;56781;42.292;23.146;2022-11-24T14:42:04;15.10;;;5.25;;
69569;SDS011;56781;42.292;23.146;2022-11-24T14:47:24;24.90;;;8.95;;
69569;SDS011;56781;42.292;23.146;2022-11-24T14:50:08;53.95;;;20.35;;
69569;SDS011;56781;42.292;23.146;2022-11-24T14:52:50;18.87;;;11.17;;
69569;SDS011;56781;42.292;23.146;2022-11-24T14:55:26;10.10;;;5.18;;
69569;SDS011;56781;42.292;23.146;2022-11-24T14:57:55;8.45;;;3.95;;
69569;SDS011;56781;42.292;23.146;2022-11-24T15:02:54;15.07;;;8.02;;
69569;SDS011;56781;42.292;23.146;2022-11-24T15:08:23;13.23;;;6.72;;
69569;SDS011;56781;42.292;23.146;2022-11-24T15:10:59;52.42;;;17.35;;
69569;SDS011;56781;42.292;23.146;2022-11-24T15:13:33;20.80;;;9.45;;
69569;SDS011;56781;42.292;23.146;2022-11-24T15:16:13;12.85;;;7.60;;
69569;SDS011;56781;42.292;23.146;2022-11-24T15:18:42;26.67;;;11.00;;
69569;SDS011;56781;42.292;23.146;2022-11-24T15:21:14;22.73;;;10.45;;
69569;SDS011;56781;42.292;23.146;2022-11-24T15:24:05;19.17;;;9.20;;
69569;SDS011;56781;42.292;23.146;2022-11-24T15:26:45;21.50;;;9.65;;
69569;SDS011;56781;42.292;23.146;2022-11-24T15:29:15;18.98;;;7.32;;
69569;SDS011;56781;42.292;23.146;2022-11-24T15:31:45;47.50;;;19.07;;
69569;SDS011;56781;42.292;23.146;2022-11-24T15:34:18;27.17;;;12.50;;
69569;SDS011;56781;42.292;23.146;2022-11-24T15:36:45;18.55;;;8.50;;
69569;SDS011;56781;42.292;23.146;2022-11-24T15:39:13;14.88;;;6.78;;
69569;SDS011;56781;42.292;23.146;2022-11-24T15:41:40;11.43;;;5.90;;
69569;SDS011;56781;42.292;23.146;2022-11-24T15:44:09;10.63;;;6.63;;
69569;SDS011;56781;42.292;23.146;2022-11-24T15:46:37;13.48;;;8.15;;
69569;SDS011;56781;42.292;23.146;2022-11-24T15:49:05;20.95;;;10.32;;
69569;SDS011;56781;42.292;23.146;2022-11-24T15:51:32;21.88;;;8.50;;
69569;SDS011;56781;42.292;23.146;2022-11-24T15:54:01;54.05;;;16.98;;
69569;SDS011;56781;42.292;23.146;2022-11-24T15:56:37;49.33;;;17.73;;
69569;SDS011;56781;42.292;23.146;2022-11-24T15:59:13;61.92;;;19.85;;
69569;SDS011;56781;42.292;23.146;2022-11-24T16:01:46;47.30;;;17.48;;
69569;SDS011;56781;42.292;23.146;2022-11-24T16:04:20;35.00;;;14.80;;
69569;SDS011;56781;42.292;23.146;2022-11-24T16:06:58;14.30;;;6.28;;
69569;SDS011;56781;42.292;23.146;2022-11-24T16:09:27;8.30;;;4.10;;
69569;SDS011;56781;42.292;23.146;2022-11-24T16:11:54;14.88;;;7.72;;
69569;SDS011;56781;42.292;23.146;2022-11-24T16:14:21;16.13;;;9.18;;
69569;SDS011;56781;42.292;23.146;2022-11-24T16:16:51;6.45;;;3.25;;
69569;SDS011;56781;42.292;23.146;2022-11-24T16:19:24;4.40;;;1.50;;
69569;SDS011;56781;42.292;23.146;2022-11-24T16:21:52;3.73;;;1.97;;
69569;SDS011;56781;42.292;23.146;2022-11-24T16:24:19;6.80;;;2.85;;
69569;SDS011;56781;42.292;23.146;2022-11-24T16:26:49;9.23;;;5.18;;
69569;SDS011;56781;42.292;23.146;2022-11-24T16:29:18;7.57;;;4.50;;
69569;SDS011;56781;42.292;23.146;2022-11-24T16:31:48;9.77;;;3.67;;
69569;SDS011;56781;42.292;23.146;2022-11-24T16:34:17;4.30;;;1.70;;
69569;SDS011;56781;42.292;23.146;2022-11-24T16:36:46;12.63;;;4.15;;
69569;SDS011;56781;42.292;23.146;2022-11-24T16:39:17;4.82;;;1.60;;
69569;SDS011;56781;42.292;23.146;2022-11-24T16:41:46;3.60;;;1.35;;
69569;SDS011;56781;42.292;23.146;2022-11-24T16:44:13;3.58;;;1.50;;
69569;SDS011;56781;42.292;23.146;2022-11-24T16:46:40;3.00;;;1.23;;